Penrose, Utah
Current Conditions -  °F | °C
As of 12:55 PM on Saturday 25 Oct 2014 (Local Time) from KBMC Reporting Station
Clear Clear  
Wind Chill: 23°   Ceiling: Unl
Heat Index: 23°   Visibility: 10mi
Dew Point:   Wind: 16mph
Humidity: 21%   Direction: 210°SSW
Pressure: 30.02"   Gusts: NA
Location:  41.6836°N, 112.26°W
Report Text: KBMC 251855Z AUTO 21014KT 10SM CLR 23/00 A3002 RMK AO1 T02341003
Loading
Personal Weather Stations






























Interactive Weather Map
Tropical Storm Tracking
New forecast layout! Learn more

10-Day Weather Forecast

Advertisements
Track Severe Weather on mobile